sensor_id;sensor_type;location;lat;lon;timestamp;pressure;altitude;pressure_sealevel;temperature;humidity
43818;BME280;29868;47.360;18.984;2023-01-31T00:01:34;100010.31;;;2.96;100.00
43818;BME280;29868;47.360;18.984;2023-01-31T00:04:02;100006.94;;;2.97;100.00
43818;BME280;29868;47.360;18.984;2023-01-31T00:06:33;100009.88;;;2.85;100.00
43818;BME280;29868;47.360;18.984;2023-01-31T00:09:00;100011.63;;;2.86;100.00
43818;BME280;29868;47.360;18.984;2023-01-31T00:11:27;100011.19;;;2.76;100.00
43818;BME280;29868;47.360;18.984;2023-01-31T11:01:59;100534.47;;;6.40;100.00
43818;BME280;29868;47.360;18.984;2023-01-31T11:04:32;100554.66;;;6.28;100.00
43818;BME280;29868;47.360;18.984;2023-01-31T11:07:00;100547.25;;;6.13;100.00
43818;BME280;29868;47.360;18.984;2023-01-31T11:09:47;100528.44;;;6.40;100.00
43818;BME280;29868;47.360;18.984;2023-01-31T11:12:16;100516.13;;;6.56;100.00
43818;BME280;29868;47.360;18.984;2023-01-31T11:14:41;100535.63;;;6.74;100.00
43818;BME280;29868;47.360;18.984;2023-01-31T11:17:14;100515.47;;;6.38;100.00
43818;BME280;29868;47.360;18.984;2023-01-31T11:19:49;100525.41;;;6.77;100.00
43818;BME280;29868;47.360;18.984;2023-01-31T11:22:28;100519.88;;;7.19;100.00
43818;BME280;29868;47.360;18.984;2023-01-31T11:24:56;100517.88;;;6.83;100.00
43818;BME280;29868;47.360;18.984;2023-01-31T11:30:00;100519.84;;;6.65;100.00
43818;BME280;29868;47.360;18.984;2023-01-31T11:32:30;100509.56;;;6.41;100.00
43818;BME280;29868;47.360;18.984;2023-01-31T11:35:01;100521.97;;;6.27;100.00
43818;BME280;29868;47.360;18.984;2023-01-31T11:37:29;100516.25;;;6.36;100.00
43818;BME280;29868;47.360;18.984;2023-01-31T11:40:31;100498.78;;;6.28;100.00
43818;BME280;29868;47.360;18.984;2023-01-31T11:43:03;100497.31;;;6.35;100.00
43818;BME280;29868;47.360;18.984;2023-01-31T11:45:31;100496.41;;;6.33;100.00
43818;BME280;29868;47.360;18.984;2023-01-31T11:50:39;100487.72;;;6.31;100.00
43818;BME280;29868;47.360;18.984;2023-01-31T11:53:20;100491.50;;;6.41;100.00
43818;BME280;29868;47.360;18.984;2023-01-31T11:55:48;100500.13;;;6.67;100.00
43818;BME280;29868;47.360;18.984;2023-01-31T11:58:30;100474.69;;;6.52;100.00
43818;BME280;29868;47.360;18.984;2023-01-31T12:01:01;100472.47;;;6.37;100.00
43818;BME280;29868;47.360;18.984;2023-01-31T12:03:30;100481.25;;;6.18;100.00
43818;BME280;29868;47.360;18.984;2023-01-31T12:06:07;100474.69;;;6.28;100.00
43818;BME280;29868;47.360;18.984;2023-01-31T12:08:38;100471.88;;;6.46;100.00
43818;BME280;29868;47.360;18.984;2023-01-31T12:13:59;100480.06;;;6.85;100.00
43818;BME280;29868;47.360;18.984;2023-01-31T12:16:27;100479.03;;;6.80;100.00
43818;BME280;29868;47.360;18.984;2023-01-31T12:21:48;100476.84;;;6.92;100.00
43818;BME280;29868;47.360;18.984;2023-01-31T12:26:55;100490.47;;;6.87;100.00
43818;BME280;29868;47.360;18.984;2023-01-31T12:43:00;100507.25;;;6.48;100.00
43818;BME280;29868;47.360;18.984;2023-01-31T12:56:12;100526.19;;;6.49;100.00
43818;BME280;29868;47.360;18.984;2023-01-31T12:58:57;100519.63;;;6.33;100.00
43818;BME280;29868;47.360;18.984;2023-01-31T13:04:32;100533.19;;;6.53;100.00
43818;BME280;29868;47.360;18.984;2023-01-31T13:07:27;100532.59;;;6.36;100.00
43818;BME280;29868;47.360;18.984;2023-01-31T13:09:58;100542.59;;;6.27;100.00
43818;BME280;29868;47.360;18.984;2023-01-31T13:12:27;100543.59;;;6.06;100.00
43818;BME280;29868;47.360;18.984;2023-01-31T13:17:32;100551.19;;;6.26;100.00
43818;BME280;29868;47.360;18.984;2023-01-31T13:22:51;100553.59;;;6.45;100.00
43818;BME280;29868;47.360;18.984;2023-01-31T13:27:58;100558.50;;;6.39;100.00
43818;BME280;29868;47.360;18.984;2023-01-31T13:30:34;100560.81;;;6.31;100.00
43818;BME280;29868;47.360;18.984;2023-01-31T13:33:13;100558.31;;;6.33;100.00
43818;BME280;29868;47.360;18.984;2023-01-31T13:35:42;100562.47;;;6.29;100.00
43818;BME280;29868;47.360;18.984;2023-01-31T13:38:19;100564.88;;;6.25;100.00
43818;BME280;29868;47.360;18.984;2023-01-31T13:40:51;100570.25;;;6.07;100.00
43818;BME280;29868;47.360;18.984;2023-01-31T13:43:17;100564.88;;;6.01;100.00
43818;BME280;29868;47.360;18.984;2023-01-31T13:45:50;100566.09;;;6.11;100.00
43818;BME280;29868;47.360;18.984;2023-01-31T13:48:41;100569.94;;;6.22;100.00
43818;BME280;29868;47.360;18.984;2023-01-31T13:51:19;100569.94;;;6.46;100.00
43818;BME280;29868;47.360;18.984;2023-01-31T13:53:59;100579.28;;;6.42;100.00
43818;BME280;29868;47.360;18.984;2023-01-31T13:56:31;100560.38;;;6.19;100.00
43818;BME280;29868;47.360;18.984;2023-01-31T13:58:59;100550.94;;;6.20;100.00
43818;BME280;29868;47.360;18.984;2023-01-31T14:01:27;100571.56;;;6.20;100.00
43818;BME280;29868;47.360;18.984;2023-01-31T14:09:28;100563.06;;;5.76;100.00
43818;BME280;29868;47.360;18.984;2023-01-31T14:11:56;100569.81;;;5.74;100.00
43818;BME280;29868;47.360;18.984;2023-01-31T14:17:10;100572.72;;;5.60;100.00
43818;BME280;29868;47.360;18.984;2023-01-31T14:22:34;100589.03;;;5.59;100.00
43818;BME280;29868;47.360;18.984;2023-01-31T14:32:56;100592.13;;;5.51;100.00
43818;BME280;29868;47.360;18.984;2023-01-31T14:40:33;100588.97;;;5.58;100.00
43818;BME280;29868;47.360;18.984;2023-01-31T14:45:59;100589.25;;;5.43;100.00
43818;BME280;29868;47.360;18.984;2023-01-31T14:49:16;100577.69;;;5.33;100.00
43818;BME280;29868;47.360;18.984;2023-01-31T14:52:10;100588.13;;;5.36;100.00
43818;BME280;29868;47.360;18.984;2023-01-31T14:57:38;100587.88;;;5.30;100.00
43818;BME280;29868;47.360;18.984;2023-01-31T15:00:19;100596.56;;;5.11;100.00
43818;BME280;29868;47.360;18.984;2023-01-31T15:03:16;100579.97;;;5.05;100.00
43818;BME280;29868;47.360;18.984;2023-01-31T15:05:43;100578.97;;;5.01;100.00
43818;BME280;29868;47.360;18.984;2023-01-31T15:16:04;100591.56;;;4.74;100.00
43818;BME280;29868;47.360;18.984;2023-01-31T15:18:31;100589.88;;;4.55;100.00
43818;BME280;29868;47.360;18.984;2023-01-31T15:21:04;100591.91;;;4.43;100.00
43818;BME280;29868;47.360;18.984;2023-01-31T15:23:32;100588.13;;;4.35;100.00
43818;BME280;29868;47.360;18.984;2023-01-31T15:26:01;100593.59;;;4.23;100.00
43818;BME280;29868;47.360;18.984;2023-01-31T15:28:31;100585.84;;;4.22;100.00
43818;BME280;29868;47.360;18.984;2023-01-31T15:31:01;100591.38;;;4.31;100.00
43818;BME280;29868;47.360;18.984;2023-01-31T15:33:36;100586.91;;;4.27;100.00
43818;BME280;29868;47.360;18.984;2023-01-31T15:36:13;100584.34;;;4.27;100.00
43818;BME280;29868;47.360;18.984;2023-01-31T15:38:53;100594.41;;;4.22;100.00
43818;BME280;29868;47.360;18.984;2023-01-31T15:41:24;100595.09;;;4.18;100.00
43818;BME280;29868;47.360;18.984;2023-01-31T15:43:54;100595.34;;;4.24;100.00
43818;BME280;29868;47.360;18.984;2023-01-31T15:46:27;100589.41;;;4.25;100.00
43818;BME280;29868;47.360;18.984;2023-01-31T15:48:53;100590.84;;;4.19;100.00
43818;BME280;29868;47.360;18.984;2023-01-31T15:51:18;100597.56;;;4.17;100.00
43818;BME280;29868;47.360;18.984;2023-01-31T15:53:45;100591.72;;;4.19;100.00
43818;BME280;29868;47.360;18.984;2023-01-31T15:56:20;100588.31;;;4.20;100.00
43818;BME280;29868;47.360;18.984;2023-01-31T15:58:49;100583.94;;;4.18;100.00
43818;BME280;29868;47.360;18.984;2023-01-31T16:01:16;100588.94;;;4.14;100.00
43818;BME280;29868;47.360;18.984;2023-01-31T16:03:48;100589.09;;;4.18;100.00
43818;BME280;29868;47.360;18.984;2023-01-31T16:06:24;100601.66;;;4.11;100.00
43818;BME280;29868;47.360;18.984;2023-01-31T16:08:52;100597.03;;;4.04;100.00
43818;BME280;29868;47.360;18.984;2023-01-31T16:11:18;100594.75;;;4.10;100.00
43818;BME280;29868;47.360;18.984;2023-01-31T16:13:45;100599.03;;;4.10;100.00
43818;BME280;29868;47.360;18.984;2023-01-31T16:16:11;100588.66;;;4.08;100.00
43818;BME280;29868;47.360;18.984;2023-01-31T16:18:43;100581.47;;;4.01;100.00
43818;BME280;29868;47.360;18.984;2023-01-31T16:23:40;100581.41;;;4.00;100.00
43818;BME280;29868;47.360;18.984;2023-01-31T16:26:13;100580.09;;;3.90;100.00
43818;BME280;29868;47.360;18.984;2023-01-31T16:28:43;100571.66;;;3.93;100.00
43818;BME280;29868;47.360;18.984;2023-01-31T16:31:17;100578.81;;;3.80;100.00
43818;BME280;29868;47.360;18.984;2023-01-31T16:33:49;100584.00;;;3.82;100.00
43818;BME280;29868;47.360;18.984;2023-01-31T16:36:28;100589.44;;;3.88;100.00
43818;BME280;29868;47.360;18.984;2023-01-31T16:39:03;100590.94;;;3.83;100.00
43818;BME280;29868;47.360;18.984;2023-01-31T16:41:48;100597.31;;;3.91;100.00
43818;BME280;29868;47.360;18.984;2023-01-31T16:44:21;100595.03;;;3.79;100.00
43818;BME280;29868;47.360;18.984;2023-01-31T16:46:50;100595.78;;;3.77;100.00
43818;BME280;29868;47.360;18.984;2023-01-31T16:49:27;100594.03;;;3.76;100.00
43818;BME280;29868;47.360;18.984;2023-01-31T16:52:08;100604.59;;;3.64;100.00
43818;BME280;29868;47.360;18.984;2023-01-31T16:54:59;100611.28;;;3.60;100.00
43818;BME280;29868;47.360;18.984;2023-01-31T16:59:58;100611.56;;;3.66;100.00
43818;BME280;29868;47.360;18.984;2023-01-31T17:02:28;100605.91;;;3.74;100.00
43818;BME280;29868;47.360;18.984;2023-01-31T17:05:00;100607.38;;;3.69;100.00
43818;BME280;29868;47.360;18.984;2023-01-31T17:07:35;100601.50;;;3.71;100.00
43818;BME280;29868;47.360;18.984;2023-01-31T17:10:06;100605.09;;;3.75;100.00
43818;BME280;29868;47.360;18.984;2023-01-31T17:12:35;100599.56;;;3.85;100.00
43818;BME280;29868;47.360;18.984;2023-01-31T17:15:01;100594.91;;;3.76;100.00
43818;BME280;29868;47.360;18.984;2023-01-31T17:17:29;100591.22;;;3.71;100.00
43818;BME280;29868;47.360;18.984;2023-01-31T17:19:56;100592.53;;;3.81;100.00
43818;BME280;29868;47.360;18.984;2023-01-31T17:22:22;100599.44;;;3.82;100.00
43818;BME280;29868;47.360;18.984;2023-01-31T17:24:49;100600.53;;;3.87;100.00
43818;BME280;29868;47.360;18.984;2023-01-31T17:27:16;100601.63;;;3.92;100.00
43818;BME280;29868;47.360;18.984;2023-01-31T17:29:42;100598.75;;;3.86;100.00
43818;BME280;29868;47.360;18.984;2023-01-31T17:32:12;100598.22;;;3.93;100.00
43818;BME280;29868;47.360;18.984;2023-01-31T17:34:38;100587.94;;;3.93;100.00
43818;BME280;29868;47.360;18.984;2023-01-31T17:37:04;100589.84;;;3.97;100.00
43818;BME280;29868;47.360;18.984;2023-01-31T17:39:29;100586.06;;;4.08;100.00
43818;BME280;29868;47.360;18.984;2023-01-31T17:41:55;100590.28;;;4.06;100.00
43818;BME280;29868;47.360;18.984;2023-01-31T17:44:21;100593.69;;;4.05;100.00
43818;BME280;29868;47.360;18.984;2023-01-31T17:46:46;100590.28;;;4.06;100.00
43818;BME280;29868;47.360;18.984;2023-01-31T17:49:12;100590.88;;;4.01;100.00
43818;BME280;29868;47.360;18.984;2023-01-31T17:51:37;100590.53;;;4.12;100.00
43818;BME280;29868;47.360;18.984;2023-01-31T17:54:03;100591.22;;;4.08;100.00
43818;BME280;29868;47.360;18.984;2023-01-31T17:56:28;100594.31;;;4.01;100.00
43818;BME280;29868;47.360;18.984;2023-01-31T17:58:54;100589.13;;;4.00;100.00
43818;BME280;29868;47.360;18.984;2023-01-31T18:01:19;100590.44;;;4.09;100.00
43818;BME280;29868;47.360;18.984;2023-01-31T18:03:45;100583.94;;;3.98;100.00
43818;BME280;29868;47.360;18.984;2023-01-31T18:06:10;100578.63;;;3.95;100.00
43818;BME280;29868;47.360;18.984;2023-01-31T18:08:36;100573.84;;;4.03;100.00
43818;BME280;29868;47.360;18.984;2023-01-31T18:11:13;100573.56;;;3.97;100.00
43818;BME280;29868;47.360;18.984;2023-01-31T18:13:40;100578.63;;;3.95;100.00
43818;BME280;29868;47.360;18.984;2023-01-31T18:16:11;100570.94;;;3.95;100.00
43818;BME280;29868;47.360;18.984;2023-01-31T18:18:38;100574.31;;;3.94;100.00
43818;BME280;29868;47.360;18.984;2023-01-31T18:21:12;100575.09;;;3.93;100.00
43818;BME280;29868;47.360;18.984;2023-01-31T18:23:38;100576.31;;;4.01;100.00
43818;BME280;29868;47.360;18.984;2023-01-31T18:26:05;100582.28;;;4.00;100.00
43818;BME280;29868;47.360;18.984;2023-01-31T18:28:30;100584.31;;;4.07;100.00
43818;BME280;29868;47.360;18.984;2023-01-31T18:31:06;100581.03;;;4.10;100.00
43818;BME280;29868;47.360;18.984;2023-01-31T18:33:36;100573.38;;;4.11;100.00
43818;BME280;29868;47.360;18.984;2023-01-31T18:36:01;100573.75;;;4.01;100.00
43818;BME280;29868;47.360;18.984;2023-01-31T18:38:28;100575.00;;;4.09;100.00
43818;BME280;29868;47.360;18.984;2023-01-31T18:40:54;100575.25;;;4.15;100.00
43818;BME280;29868;47.360;18.984;2023-01-31T18:43:20;100572.69;;;4.15;100.00
43818;BME280;29868;47.360;18.984;2023-01-31T18:45:46;100576.91;;;4.13;100.00
43818;BME280;29868;47.360;18.984;2023-01-31T18:48:12;100578.94;;;4.21;100.00
43818;BME280;29868;47.360;18.984;2023-01-31T18:50:37;100578.03;;;4.20;100.00
43818;BME280;29868;47.360;18.984;2023-01-31T18:53:04;100578.19;;;4.23;100.00
43818;BME280;29868;47.360;18.984;2023-01-31T18:55:30;100577.31;;;4.23;100.00
43818;BME280;29868;47.360;18.984;2023-01-31T18:57:55;100574.72;;;4.23;100.00
43818;BME280;29868;47.360;18.984;2023-01-31T19:00:21;100570.25;;;4.19;100.00
43818;BME280;29868;47.360;18.984;2023-01-31T19:02:50;100575.00;;;4.29;100.00
43818;BME280;29868;47.360;18.984;2023-01-31T19:05:17;100570.47;;;4.23;100.00
43818;BME280;29868;47.360;18.984;2023-01-31T19:07:43;100576.41;;;4.22;100.00
43818;BME280;29868;47.360;18.984;2023-01-31T19:10:09;100583.66;;;4.31;100.00
43818;BME280;29868;47.360;18.984;2023-01-31T19:12:34;100579.94;;;4.24;100.00
43818;BME280;29868;47.360;18.984;2023-01-31T19:15:05;100585.31;;;4.29;100.00
43818;BME280;29868;47.360;18.984;2023-01-31T19:17:31;100584.63;;;4.33;100.00
43818;BME280;29868;47.360;18.984;2023-01-31T19:19:56;100588.75;;;4.29;100.00
43818;BME280;29868;47.360;18.984;2023-01-31T19:22:21;100580.75;;;4.23;100.00
43818;BME280;29868;47.360;18.984;2023-01-31T19:24:52;100589.63;;;4.30;100.00
43818;BME280;29868;47.360;18.984;2023-01-31T19:27:18;100588.06;;;4.33;100.00
43818;BME280;29868;47.360;18.984;2023-01-31T19:29:43;100590.22;;;4.24;100.00
43818;BME280;29868;47.360;18.984;2023-01-31T19:32:09;100583.13;;;4.38;100.00
43818;BME280;29868;47.360;18.984;2023-01-31T19:34:34;100595.97;;;4.38;100.00
43818;BME280;29868;47.360;18.984;2023-01-31T19:37:01;100583.25;;;4.41;100.00
43818;BME280;29868;47.360;18.984;2023-01-31T19:39:26;100579.03;;;4.43;100.00
43818;BME280;29868;47.360;18.984;2023-01-31T19:41:52;100573.91;;;4.43;100.00
43818;BME280;29868;47.360;18.984;2023-01-31T19:44:17;100569.56;;;4.42;100.00
43818;BME280;29868;47.360;18.984;2023-01-31T19:46:44;100563.56;;;4.42;100.00
43818;BME280;29868;47.360;18.984;2023-01-31T19:49:10;100563.50;;;4.40;100.00
43818;BME280;29868;47.360;18.984;2023-01-31T19:51:36;100570.19;;;4.36;100.00
43818;BME280;29868;47.360;18.984;2023-01-31T19:54:02;100569.19;;;4.33;100.00
43818;BME280;29868;47.360;18.984;2023-01-31T19:56:28;100569.03;;;4.30;100.00
43818;BME280;29868;47.360;18.984;2023-01-31T19:58:54;100564.38;;;4.21;100.00
43818;BME280;29868;47.360;18.984;2023-01-31T20:01:20;100570.25;;;4.19;100.00
43818;BME280;29868;47.360;18.984;2023-01-31T20:03:46;100570.25;;;4.19;100.00
43818;BME280;29868;47.360;18.984;2023-01-31T20:06:14;100570.66;;;4.08;100.00
43818;BME280;29868;47.360;18.984;2023-01-31T20:08:39;100570.66;;;4.08;100.00
43818;BME280;29868;47.360;18.984;2023-01-31T20:11:05;100557.94;;;4.11;100.00
43818;BME280;29868;47.360;18.984;2023-01-31T20:13:32;100571.63;;;4.10;100.00
43818;BME280;29868;47.360;18.984;2023-01-31T20:16:07;100572.97;;;4.02;100.00
43818;BME280;29868;47.360;18.984;2023-01-31T20:18:34;100571.19;;;4.01;100.00
43818;BME280;29868;47.360;18.984;2023-01-31T20:20:59;100559.00;;;3.97;100.00
43818;BME280;29868;47.360;18.984;2023-01-31T20:23:25;100577.81;;;3.96;100.00
43818;BME280;29868;47.360;18.984;2023-01-31T20:25:52;100582.09;;;3.96;100.00
43818;BME280;29868;47.360;18.984;2023-01-31T20:28:19;100578.50;;;3.92;100.00
43818;BME280;29868;47.360;18.984;2023-01-31T20:30:45;100580.50;;;3.80;100.00
43818;BME280;29868;47.360;18.984;2023-01-31T20:33:11;100589.81;;;3.78;100.00
43818;BME280;29868;47.360;18.984;2023-01-31T20:35:37;100585.19;;;3.71;100.00
43818;BME280;29868;47.360;18.984;2023-01-31T20:38:03;100584.25;;;3.69;100.00
43818;BME280;29868;47.360;18.984;2023-01-31T20:40:29;100582.72;;;3.54;100.00
43818;BME280;29868;47.360;18.984;2023-01-31T20:42:54;100575.38;;;3.44;100.00
43818;BME280;29868;47.360;18.984;2023-01-31T20:45:20;100579.06;;;3.49;100.00
43818;BME280;29868;47.360;18.984;2023-01-31T20:47:50;100578.06;;;3.46;100.00
43818;BME280;29868;47.360;18.984;2023-01-31T20:50:16;100578.63;;;3.40;100.00
43818;BME280;29868;47.360;18.984;2023-01-31T20:52:41;100573.06;;;3.31;100.00
43818;BME280;29868;47.360;18.984;2023-01-31T20:55:07;100565.19;;;3.28;100.00
43818;BME280;29868;47.360;18.984;2023-01-31T20:57:32;100556.81;;;3.14;100.00
43818;BME280;29868;47.360;18.984;2023-01-31T20:59:58;100550.31;;;3.21;100.00
43818;BME280;29868;47.360;18.984;2023-01-31T21:02:23;100544.31;;;3.20;100.00
43818;BME280;29868;47.360;18.984;2023-01-31T21:04:48;100544.91;;;3.14;100.00
43818;BME280;29868;47.360;18.984;2023-01-31T21:07:14;100546.06;;;3.21;100.00
43818;BME280;29868;47.360;18.984;2023-01-31T21:09:39;100540.03;;;3.21;100.00
43818;BME280;29868;47.360;18.984;2023-01-31T21:12:05;100541.38;;;3.12;100.00
43818;BME280;29868;47.360;18.984;2023-01-31T21:14:30;100538.22;;;3.00;100.00
43818;BME280;29868;47.360;18.984;2023-01-31T21:16:56;100532.78;;;2.94;100.00
43818;BME280;29868;47.360;18.984;2023-01-31T21:19:21;100531.31;;;2.81;100.00
43818;BME280;29868;47.360;18.984;2023-01-31T21:21:47;100526.31;;;2.84;100.00
43818;BME280;29868;47.360;18.984;2023-01-31T21:24:12;100515.44;;;2.72;100.00
43818;BME280;29868;47.360;18.984;2023-01-31T21:26:37;100517.44;;;2.78;100.00
43818;BME280;29868;47.360;18.984;2023-01-31T21:29:03;100516.25;;;2.71;100.00
43818;BME280;29868;47.360;18.984;2023-01-31T21:31:29;100514.06;;;2.79;100.00
43818;BME280;29868;47.360;18.984;2023-01-31T21:33:54;100510.69;;;2.80;100.00
43818;BME280;29868;47.360;18.984;2023-01-31T21:36:22;100521.38;;;2.71;100.00
43818;BME280;29868;47.360;18.984;2023-01-31T21:38:48;100522.72;;;2.81;100.00
43818;BME280;29868;47.360;18.984;2023-01-31T21:41:15;100513.25;;;2.80;100.00
43818;BME280;29868;47.360;18.984;2023-01-31T21:43:59;100511.72;;;2.83;100.00
43818;BME280;29868;47.360;18.984;2023-01-31T21:46:25;100511.72;;;2.83;100.00
43818;BME280;29868;47.360;18.984;2023-01-31T21:48:51;100500.22;;;2.75;100.00
43818;BME280;29868;47.360;18.984;2023-01-31T21:51:19;100502.78;;;2.75;100.00
43818;BME280;29868;47.360;18.984;2023-01-31T21:53:46;100504.63;;;2.78;100.00
43818;BME280;29868;47.360;18.984;2023-01-31T21:56:14;100505.72;;;2.83;100.00
43818;BME280;29868;47.360;18.984;2023-01-31T21:58:41;100510.19;;;2.87;100.00
43818;BME280;29868;47.360;18.984;2023-01-31T22:03:38;100514.38;;;2.85;100.00
43818;BME280;29868;47.360;18.984;2023-01-31T22:06:06;100511.88;;;2.86;100.00
43818;BME280;29868;47.360;18.984;2023-01-31T22:08:32;100514.38;;;2.85;100.00
43818;BME280;29868;47.360;18.984;2023-01-31T22:11:03;100510.34;;;2.90;100.00
43818;BME280;29868;47.360;18.984;2023-01-31T22:13:29;100514.06;;;2.79;100.00
43818;BME280;29868;47.360;18.984;2023-01-31T22:16:02;100516.13;;;2.86;100.00
43818;BME280;29868;47.360;18.984;2023-01-31T22:18:29;100503.66;;;2.93;100.00
43818;BME280;29868;47.360;18.984;2023-01-31T22:21:16;100512.09;;;2.91;100.00
43818;BME280;29868;47.360;18.984;2023-01-31T22:23:50;100501.91;;;2.92;100.00
43818;BME280;29868;47.360;18.984;2023-01-31T22:26:21;100511.59;;;2.98;100.00
43818;BME280;29868;47.360;18.984;2023-01-31T22:28:47;100514.31;;;3.01;100.00
43818;BME280;29868;47.360;18.984;2023-01-31T22:31:13;100513.44;;;3.01;100.00
43818;BME280;29868;47.360;18.984;2023-01-31T22:33:40;100501.31;;;2.98;100.00
43818;BME280;29868;47.360;18.984;2023-01-31T22:36:06;100518.06;;;3.08;100.00
43818;BME280;29868;47.360;18.984;2023-01-31T22:38:32;100517.31;;;3.10;100.00
43818;BME280;29868;47.360;18.984;2023-01-31T22:41:00;100512.41;;;3.15;100.00
43818;BME280;29868;47.360;18.984;2023-01-31T22:43:27;100504.19;;;3.04;100.00
43818;BME280;29868;47.360;18.984;2023-01-31T22:45:53;100505.28;;;3.09;100.00
43818;BME280;29868;47.360;18.984;2023-01-31T22:48:20;100486.38;;;3.07;100.00
43818;BME280;29868;47.360;18.984;2023-01-31T22:50:58;100488.56;;;3.17;100.00
43818;BME280;29868;47.360;18.984;2023-01-31T22:53:25;100482.63;;;3.19;100.00
43818;BME280;29868;47.360;18.984;2023-01-31T22:55:51;100479.31;;;3.21;100.00
43818;BME280;29868;47.360;18.984;2023-01-31T22:58:17;100479.41;;;3.23;100.00
43818;BME280;29868;47.360;18.984;2023-01-31T23:00:45;100483.72;;;3.24;100.00
43818;BME280;29868;47.360;18.984;2023-01-31T23:03:11;100474.28;;;3.23;100.00
43818;BME280;29868;47.360;18.984;2023-01-31T23:05:40;100466.56;;;3.23;100.00
43818;BME280;29868;47.360;18.984;2023-01-31T23:08:11;100459.66;;;3.22;100.00
43818;BME280;29868;47.360;18.984;2023-01-31T23:10:38;100460.31;;;3.17;100.00
43818;BME280;29868;47.360;18.984;2023-01-31T23:13:04;100456.66;;;3.12;100.00
43818;BME280;29868;47.360;18.984;2023-01-31T23:15:30;100448.34;;;3.18;100.00
43818;BME280;29868;47.360;18.984;2023-01-31T23:17:56;100443.84;;;3.12;100.00
43818;BME280;29868;47.360;18.984;2023-01-31T23:20:22;100452.34;;;3.11;100.00
43818;BME280;29868;47.360;18.984;2023-01-31T23:22:52;100443.53;;;3.06;100.00
43818;BME280;29868;47.360;18.984;2023-01-31T23:25:19;100440.03;;;3.04;100.00
43818;BME280;29868;47.360;18.984;2023-01-31T23:27:45;100438.13;;;3.00;100.00
43818;BME280;29868;47.360;18.984;2023-01-31T23:30:12;100438.13;;;3.00;100.00
43818;BME280;29868;47.360;18.984;2023-01-31T23:32:38;100430.59;;;3.03;100.00
43818;BME280;29868;47.360;18.984;2023-01-31T23:35:04;100423.16;;;3.09;100.00
43818;BME280;29868;47.360;18.984;2023-01-31T23:37:30;100420.69;;;3.11;100.00
43818;BME280;29868;47.360;18.984;2023-01-31T23:39:56;100421.41;;;3.08;100.00
43818;BME280;29868;47.360;18.984;2023-01-31T23:42:22;100420.88;;;3.15;100.00
43818;BME280;29868;47.360;18.984;2023-01-31T23:44:48;100425.06;;;3.13;100.00
43818;BME280;29868;47.360;18.984;2023-01-31T23:47:13;100420.59;;;3.09;100.00
43818;BME280;29868;47.360;18.984;2023-01-31T23:49:39;100411.56;;;3.17;100.00
43818;BME280;29868;47.360;18.984;2023-01-31T23:52:06;100411.56;;;3.17;100.00
43818;BME280;29868;47.360;18.984;2023-01-31T23:54:31;100410.53;;;3.14;100.00
43818;BME280;29868;47.360;18.984;2023-01-31T23:56:57;100412.31;;;3.15;100.00
43818;BME280;29868;47.360;18.984;2023-01-31T23:59:22;100414.22;;;3.19;100.00
